宮崎空港の過去48時間の天気

宮崎空港 (Miyazaki)

現在時刻: 9/19 07:49 JST (9/18 22:49 UTC) 以下の時間は現地時間です。

過去48時間のMETAR気象情報
時間 風向 風速(m/s) 視程 気温(℃) 湿度(%) 気圧(hPa) 天気現象
19 07:00 西北西 2 10km以上 23 89 1012
19 06:10 不定 1 10km以上 23 89 1012
RJFM 182200Z 29003KT 9999 FEW020 BKN035 23/21 Q1012
RJFM 182110Z VRB02KT 9999 FEW020 BKN035 23/21 Q1012 RMK 1CU020 5CU035 A2989